createdAt,value
2019-03-12T00:02:20.278Z,99842.95
2019-03-12T00:04:49.754Z,99845.26
2019-03-12T00:07:19.046Z,99846.38
2019-03-12T00:09:48.886Z,99848.77
2019-03-12T00:12:18.902Z,99854.01
2019-03-12T00:14:48.638Z,99858.28
2019-03-12T00:17:17.725Z,99865.92
2019-03-12T00:19:48.328Z,99871.92
2019-03-12T00:22:18.495Z,99867.52
2019-03-12T00:24:48.472Z,99861.66
2019-03-12T00:27:18.633Z,99863.65
2019-03-12T00:29:47.491Z,99863.65
2019-03-12T00:32:17.162Z,99864.74
2019-03-12T00:34:47.019Z,99861.33
2019-03-12T00:37:16.995Z,99871.91
2019-03-12T00:39:46.731Z,99875.05
2019-03-12T00:42:16.126Z,99883.27
2019-03-12T00:44:45.837Z,99885.75
2019-03-12T00:47:15.663Z,99888.11
2019-03-12T00:49:44.691Z,99885.44
2019-03-12T00:52:14.846Z,99897.93
2019-03-12T00:54:44.634Z,99896.48
2019-03-12T00:57:13.430Z,99900.04
2019-03-12T00:59:42.874Z,99899.81
2019-03-12T01:02:12.624Z,99908.80
2019-03-12T01:04:41.473Z,99896.25
2019-03-12T01:07:12.326Z,99901.19
2019-03-12T01:09:42.316Z,99901.19
2019-03-12T01:12:12.526Z,99905.89
2019-03-12T01:14:42.455Z,99902.58
2019-03-12T01:20:04.690Z,99908.87
2019-03-12T01:22:34.339Z,99910.59
2019-03-12T01:25:04.936Z,99911.47
2019-03-12T01:27:34.594Z,99906.66
2019-03-12T01:30:05.799Z,99911.41
2019-03-12T01:32:35.562Z,99911.41
2019-03-12T01:35:06.577Z,99903.09
2019-03-12T01:37:36.780Z,99903.25
2019-03-12T01:40:09.497Z,99903.25
2019-03-12T01:42:40.310Z,99918.61
2019-03-12T01:45:13.339Z,99918.61
2019-03-12T01:47:43.587Z,99919.38
2019-03-12T01:50:13.149Z,99926.65
2019-03-12T01:52:44.148Z,99926.56
2019-03-12T01:55:16.609Z,99928.19
2019-03-12T01:57:46.478Z,99928.81
2019-03-12T02:00:17.024Z,99930.91
2019-03-12T02:02:48.789Z,99930.91
2019-03-12T02:05:20.323Z,99930.39
2019-03-12T02:07:50.973Z,99933.09
2019-03-12T02:10:21.543Z,99933.09
2019-03-12T02:12:51.845Z,99917.55
2019-03-12T02:15:22.546Z,99917.55
2019-03-12T02:17:52.907Z,99921.22
2019-03-12T02:20:24.174Z,99921.22
2019-03-12T02:22:54.178Z,99921.97
2019-03-12T02:25:24.147Z,99919.41
2019-03-12T02:27:54.514Z,99916.81
2019-03-12T02:30:24.426Z,99910.22
2019-03-12T02:32:54.355Z,99910.22
2019-03-12T02:35:24.906Z,99931.79
2019-03-12T02:37:54.659Z,99931.79
2019-03-12T02:40:24.537Z,99931.03
2019-03-12T02:42:53.843Z,99931.63
2019-03-12T02:45:25.134Z,99929.03
2019-03-12T02:47:55.738Z,99927.84
2019-03-12T02:50:26.107Z,99924.74
2019-03-12T02:52:56.349Z,99918.91
2019-03-12T02:55:26.564Z,99923.69
2019-03-12T02:57:55.901Z,99918.00
2019-03-12T03:00:25.961Z,99923.66
2019-03-12T03:02:55.884Z,99921.22
2019-03-12T03:05:25.750Z,99921.86
2019-03-12T03:08:01.638Z,99915.25
2019-03-12T03:10:31.310Z,99920.90
2019-03-12T03:13:01.585Z,99916.78
2019-03-12T03:15:42.550Z,99922.90
2019-03-12T03:18:12.685Z,99930.48
2019-03-12T03:20:42.860Z,99930.48
2019-03-12T03:23:14.119Z,99930.76
2019-03-12T03:25:44.013Z,99939.08
2019-03-12T03:28:15.968Z,99940.77
2019-03-12T03:30:45.901Z,99947.67
2019-03-12T03:33:15.871Z,99941.27
2019-03-12T03:35:45.831Z,99941.53
2019-03-12T03:38:15.576Z,99933.13
2019-03-12T03:40:44.556Z,99938.09
2019-03-12T03:43:15.319Z,99941.52
2019-03-12T03:45:45.116Z,99929.33
2019-03-12T03:48:14.938Z,99927.59
2019-03-12T03:50:45.080Z,99927.06
2019-03-12T03:53:15.069Z,99922.81
2019-03-12T03:55:45.528Z,99923.95
2019-03-12T03:58:14.878Z,99923.95
2019-03-12T04:00:44.647Z,99927.27
2019-03-12T04:03:14.306Z,99927.03
2019-03-12T04:05:44.756Z,99935.63
2019-03-12T04:08:14.682Z,99935.09
2019-03-12T04:10:44.491Z,99937.04
2019-03-12T04:13:14.485Z,99934.13
2019-03-12T04:15:44.319Z,99934.13
2019-03-12T04:18:14.169Z,99932.13
2019-03-12T04:20:44.058Z,99932.63
2019-03-12T04:23:16.011Z,99933.40
2019-03-12T04:25:44.656Z,99925.96
2019-03-12T04:28:13.621Z,99924.41
2019-03-12T04:30:42.588Z,99929.52
2019-03-12T04:34:27.314Z,99926.08
2019-03-12T04:36:57.135Z,99937.22
2019-03-12T04:39:27.002Z,99923.53
2019-03-12T04:41:56.565Z,99923.34
2019-03-12T04:44:26.017Z,99910.30
2019-03-12T04:46:56.146Z,99910.30
2019-03-12T04:49:26.303Z,99909.70
2019-03-12T04:51:56.137Z,99905.71
2019-03-12T04:54:25.801Z,99904.59
2019-03-12T04:56:55.544Z,99904.34
2019-03-12T04:59:24.787Z,99904.58
2019-03-12T05:01:54.873Z,99907.02
2019-03-12T05:04:24.631Z,99910.33
2019-03-12T05:06:55.702Z,99919.66
2019-03-12T05:09:26.808Z,99908.95
2019-03-12T05:11:57.592Z,99916.78
2019-03-12T05:14:34.699Z,99914.64
2019-03-12T05:17:35.102Z,99906.27
2019-03-12T05:20:10.978Z,99907.42
2019-03-12T05:22:42.531Z,99899.97
2019-03-12T05:25:14.040Z,99893.72
2019-03-12T05:27:47.388Z,99894.02
2019-03-12T05:30:20.520Z,99895.95
2019-03-12T05:32:51.024Z,99895.02
2019-03-12T05:35:22.065Z,99887.52
2019-03-12T05:37:53.152Z,99891.52
2019-03-12T05:40:24.877Z,99884.67
2019-03-12T05:42:55.046Z,99889.27
2019-03-12T05:45:26.318Z,99885.14
2019-03-12T05:47:58.813Z,99875.56
2019-03-12T05:50:30.862Z,99873.17
2019-03-12T05:53:15.591Z,99873.17
2019-03-12T05:55:47.475Z,99876.81
2019-03-12T05:58:19.846Z,99870.08
2019-03-12T06:00:51.718Z,99871.70
2019-03-12T06:03:22.327Z,99861.93
2019-03-12T06:05:53.534Z,99860.25
2019-03-12T06:08:24.116Z,99860.25
2019-03-12T06:10:55.320Z,99861.12
2019-03-12T06:13:27.531Z,99851.13
2019-03-12T06:16:00.162Z,99851.13
2019-03-12T06:18:31.051Z,99847.80
2019-03-12T06:21:02.454Z,99850.36
2019-03-12T06:23:33.340Z,99832.81
2019-03-12T06:26:06.344Z,99842.26
2019-03-12T06:28:38.449Z,99842.26
2019-03-12T06:31:27.903Z,99836.95
2019-03-12T06:34:05.340Z,99836.95
2019-03-12T06:36:49.643Z,99835.92
2019-03-12T06:39:44.612Z,99828.39
2019-03-12T06:42:36.785Z,99828.30
2019-03-12T06:45:21.402Z,99823.68
2019-03-12T06:48:13.980Z,99829.61
2019-03-12T06:51:01.895Z,99826.17
2019-03-12T06:53:50.043Z,99825.20
2019-03-12T06:56:48.858Z,99824.70
2019-03-12T06:59:41.412Z,99822.83
2019-03-12T07:02:40.508Z,99822.22
2019-03-12T07:05:44.823Z,99820.77
2019-03-12T07:08:32.788Z,99812.41
2019-03-12T07:11:22.544Z,99810.81
2019-03-12T07:14:04.218Z,99802.22
2019-03-12T07:17:10.631Z,99811.74
2019-03-12T07:20:00.552Z,99811.74
2019-03-12T07:22:46.498Z,99805.52
2019-03-12T07:25:35.089Z,99797.94
2019-03-12T07:28:13.541Z,99799.56
2019-03-12T07:31:01.665Z,99792.95
2019-03-12T07:33:51.051Z,99792.95
2019-03-12T07:36:40.425Z,99782.48
2019-03-12T07:39:28.594Z,99787.28
2019-03-12T07:42:20.681Z,99790.28
2019-03-12T07:45:08.458Z,99786.33
2019-03-12T07:47:55.059Z,99783.12
2019-03-12T07:50:45.862Z,99783.63
2019-03-12T07:53:35.498Z,99776.59
2019-03-12T07:56:13.939Z,99774.89
2019-03-12T07:59:18.556Z,99761.39
2019-03-12T08:02:07.372Z,99744.30
2019-03-12T08:05:01.088Z,99744.30
2019-03-12T08:07:50.512Z,99755.06
2019-03-12T08:10:34.425Z,99748.57
2019-03-12T08:13:23.897Z,99732.88
2019-03-12T08:16:23.496Z,99732.88
2019-03-12T08:19:02.043Z,99730.73
2019-03-12T08:21:59.071Z,99730.73
2019-03-12T08:24:36.537Z,99724.23
2019-03-12T08:27:40.261Z,99713.68
2019-03-12T08:30:28.724Z,99714.13
2019-03-12T08:33:18.109Z,99714.16
2019-03-12T08:35:54.008Z,99718.01
2019-03-12T08:38:30.452Z,99708.70
2019-03-12T08:41:15.141Z,99700.30
2019-03-12T08:44:00.330Z,99700.30
2019-03-12T08:46:49.509Z,99697.54
2019-03-12T08:49:37.923Z,99691.19
2019-03-12T08:52:25.098Z,99696.50
2019-03-12T08:55:20.945Z,99691.67
2019-03-12T08:58:13.990Z,99679.65
2019-03-12T09:01:02.127Z,99671.91
2019-03-12T09:04:00.710Z,99673.04
2019-03-12T09:06:41.083Z,99676.98
2019-03-12T09:09:39.868Z,99663.99
2019-03-12T09:12:38.551Z,99659.45
2019-03-12T09:15:27.743Z,99646.17
2019-03-12T09:18:35.705Z,99646.17
2019-03-12T09:21:43.516Z,99647.58
2019-03-12T09:24:35.040Z,99631.80
2019-03-12T09:27:38.134Z,99631.95
2019-03-12T09:30:39.848Z,99640.41
2019-03-12T09:33:13.656Z,99635.66
2019-03-12T09:36:21.682Z,99634.56
2019-03-12T09:39:05.488Z,99634.02
2019-03-12T09:41:59.824Z,99619.09
2019-03-12T09:44:46.519Z,99622.30
2019-03-12T09:47:38.631Z,99600.98
2019-03-12T09:50:28.778Z,99600.98
2019-03-12T09:53:14.664Z,99584.55
2019-03-12T09:56:10.615Z,99596.45
2019-03-12T09:58:57.950Z,99570.99
2019-03-12T10:02:02.035Z,99572.58
2019-03-12T10:05:09.813Z,99566.65
2019-03-12T10:08:08.778Z,99560.36
2019-03-12T10:10:53.757Z,99554.88
2019-03-12T10:13:41.840Z,99545.17
2019-03-12T10:16:43.811Z,99537.16
2019-03-12T10:19:31.984Z,99533.80
2019-03-12T10:22:25.779Z,99515.14
2019-03-12T10:25:28.545Z,99518.23
2019-03-12T10:28:13.950Z,99503.78
2019-03-12T10:30:53.545Z,99503.78
2019-03-12T10:33:49.310Z,99498.44
2019-03-12T10:36:38.537Z,99498.44
2019-03-12T10:40:15.712Z,99486.91
2019-03-12T10:43:03.646Z,99480.53
2019-03-12T10:45:52.520Z,99483.52
2019-03-12T10:48:22.448Z,99466.59
2019-03-12T10:50:53.325Z,99461.29
2019-03-12T10:53:23.603Z,99461.29
2019-03-12T10:55:53.010Z,99460.54
2019-03-12T10:58:23.351Z,99460.54
2019-03-12T11:00:53.092Z,99455.13
2019-03-12T11:03:23.445Z,99450.38
2019-03-12T11:05:53.518Z,99443.57
2019-03-12T11:08:22.884Z,99434.09
2019-03-12T11:10:53.171Z,99434.09
2019-03-12T11:13:23.156Z,99431.34
2019-03-12T11:15:54.657Z,99422.90
2019-03-12T11:18:25.038Z,99416.50
2019-03-12T11:20:55.182Z,99404.61
2019-03-12T11:23:25.505Z,99410.44
2019-03-12T11:25:55.919Z,99395.50
2019-03-12T11:28:26.891Z,99395.50
2019-03-12T11:30:57.108Z,99399.10
2019-03-12T11:33:26.821Z,99388.67
2019-03-12T11:35:56.695Z,99379.68
2019-03-12T11:38:27.318Z,99373.88
2019-03-12T11:40:57.352Z,99372.36
2019-03-12T11:43:27.387Z,99361.80
2019-03-12T11:45:57.884Z,99355.44
2019-03-12T11:48:27.607Z,99352.40
2019-03-12T11:50:56.581Z,99344.02
2019-03-12T11:53:26.778Z,99338.28
2019-03-12T11:55:56.743Z,99333.67
2019-03-12T11:58:27.071Z,99331.36
2019-03-12T12:01:02.571Z,99337.89
2019-03-12T12:03:33.155Z,99317.66
2019-03-12T12:06:04.395Z,99317.28
2019-03-12T12:08:34.848Z,99303.76
2019-03-12T12:11:05.137Z,99294.72
2019-03-12T12:13:37.850Z,99286.56
2019-03-12T12:16:07.852Z,99287.47
2019-03-12T12:18:38.221Z,99269.88
2019-03-12T12:21:08.035Z,99263.83
2019-03-12T12:23:37.511Z,99250.21
2019-03-12T12:26:07.484Z,99240.80
2019-03-12T12:28:37.668Z,99234.73
2019-03-12T12:31:08.951Z,99234.73
2019-03-12T12:33:39.515Z,99227.07
2019-03-12T12:36:09.798Z,99186.70
2019-03-12T12:38:39.825Z,99186.70
2019-03-12T12:41:09.944Z,99192.97
2019-03-12T12:43:39.572Z,99171.91
2019-03-12T12:46:09.439Z,99163.61
2019-03-12T12:48:41.141Z,99149.63
2019-03-12T12:51:11.994Z,99141.73
2019-03-12T12:53:42.873Z,99138.88
2019-03-12T12:56:13.428Z,99138.92
2019-03-12T12:58:43.167Z,99120.43
2019-03-12T13:01:18.147Z,99120.43
2019-03-12T13:03:48.620Z,99115.31
2019-03-12T13:06:19.775Z,99115.31
2019-03-12T13:08:50.623Z,99103.64
2019-03-12T13:11:21.314Z,99086.58
2019-03-12T13:13:51.448Z,99089.72
2019-03-12T13:16:25.411Z,99083.67
2019-03-12T13:18:53.906Z,99074.55
2019-03-12T13:21:24.312Z,99063.93
2019-03-12T13:23:55.321Z,99065.20
2019-03-12T13:26:25.598Z,99060.42
2019-03-12T13:28:56.887Z,99056.45
2019-03-12T13:31:26.829Z,99041.37
2019-03-12T13:33:59.666Z,99050.34
2019-03-12T13:36:30.358Z,99036.66
2019-03-12T13:39:00.599Z,99023.41
2019-03-12T13:41:29.667Z,99023.41
2019-03-12T13:43:59.550Z,99025.87
2019-03-12T13:46:29.013Z,99014.83
2019-03-12T13:48:58.964Z,99007.54
2019-03-12T13:51:29.501Z,99004.66
2019-03-12T13:53:59.501Z,98982.07
2019-03-12T13:56:28.303Z,98982.07
2019-03-12T13:58:58.430Z,98974.01
2019-03-12T14:01:28.736Z,98974.01
2019-03-12T14:04:10.070Z,98970.16
2019-03-12T14:06:30.909Z,98970.77
2019-03-12T14:09:00.983Z,98960.75
2019-03-12T14:11:32.902Z,98948.61
2019-03-12T14:14:02.644Z,98946.59
2019-03-12T14:16:32.945Z,98941.26
2019-03-12T14:19:03.503Z,98932.97
2019-03-12T14:21:42.707Z,98924.48
2019-03-12T14:24:14.057Z,98919.72
2019-03-12T14:26:45.529Z,98913.02
2019-03-12T14:29:16.061Z,98896.89
2019-03-12T14:31:47.700Z,98894.33
2019-03-12T14:34:20.533Z,98882.08
2019-03-12T14:36:51.690Z,98865.39
2019-03-12T14:39:23.576Z,98859.48
2019-03-12T14:41:54.319Z,98832.45
2019-03-12T14:44:25.410Z,98828.46
2019-03-12T14:46:56.496Z,98838.41
2019-03-12T14:49:27.439Z,98826.18
2019-03-12T14:52:28.465Z,98822.46
2019-03-12T14:54:58.666Z,98808.48
2019-03-12T14:57:28.736Z,98808.48
2019-03-12T15:00:00.484Z,98806.11
2019-03-12T15:02:31.617Z,98796.89
2019-03-12T15:05:01.949Z,98784.48
2019-03-12T15:07:32.515Z,98778.78
2019-03-12T15:12:03.526Z,98762.67
2019-03-12T15:14:33.478Z,98763.91
2019-03-12T15:17:02.557Z,98753.92
2019-03-12T15:19:31.709Z,98753.07
2019-03-12T15:22:02.547Z,98741.40
2019-03-12T15:24:36.024Z,98728.98
2019-03-12T15:27:05.919Z,98717.45
2019-03-12T15:29:40.000Z,98706.27
2019-03-12T15:32:13.305Z,98698.43
2019-03-12T15:34:43.725Z,98698.43
2019-03-12T15:37:14.876Z,98693.73
2019-03-12T15:39:45.352Z,98685.84
2019-03-12T15:42:16.172Z,98679.47
2019-03-12T15:44:46.352Z,98676.47
2019-03-12T15:47:16.685Z,98661.43
2019-03-12T15:49:47.056Z,98661.43
2019-03-12T15:52:17.676Z,98656.18
2019-03-12T15:54:47.591Z,98652.84
2019-03-12T15:57:17.268Z,98648.92
2019-03-12T15:59:47.463Z,98640.58
2019-03-12T16:02:17.500Z,98622.55
2019-03-12T16:04:47.852Z,98622.55
2019-03-12T16:07:17.848Z,98623.09
2019-03-12T16:09:47.723Z,98618.44
2019-03-12T16:12:19.044Z,98615.53
2019-03-12T16:14:49.502Z,98603.89
2019-03-12T16:17:19.611Z,98588.08
2019-03-12T16:19:49.111Z,98588.08
2019-03-12T16:22:19.317Z,98592.28
2019-03-12T16:24:49.516Z,98582.87
2019-03-12T16:27:20.268Z,98582.13
2019-03-12T16:29:50.537Z,98570.83
2019-03-12T16:32:19.711Z,98568.42
2019-03-12T16:34:51.940Z,98564.09
2019-03-12T16:37:28.347Z,98559.31
2019-03-12T16:39:58.640Z,98558.17
2019-03-12T16:42:34.948Z,98552.70
2019-03-12T16:45:01.016Z,98548.29
2019-03-12T16:47:32.316Z,98542.48
2019-03-12T16:50:02.599Z,98527.26
2019-03-12T16:52:33.579Z,98531.08
2019-03-12T16:55:03.491Z,98524.92
2019-03-12T16:57:33.681Z,98509.08
2019-03-12T17:00:08.207Z,98509.08
2019-03-12T17:02:37.515Z,98496.30
2019-03-12T17:05:07.040Z,98500.86
2019-03-12T17:07:37.203Z,98489.05
2019-03-12T17:10:09.802Z,98478.38
2019-03-12T17:12:40.640Z,98474.23
2019-03-12T17:15:11.928Z,98466.38
2019-03-12T17:17:42.659Z,98469.28
2019-03-12T17:20:13.317Z,98468.06
2019-03-12T17:22:43.566Z,98455.44
2019-03-12T17:25:14.558Z,98437.75
2019-03-12T17:27:43.966Z,98431.52
2019-03-12T17:30:17.740Z,98423.91
2019-03-12T17:32:47.839Z,98418.05
2019-03-12T17:35:23.357Z,98414.19
2019-03-12T17:37:53.521Z,98404.52
2019-03-12T17:40:25.532Z,98408.51
2019-03-12T17:42:54.924Z,98404.44
2019-03-12T17:45:25.013Z,98401.09
2019-03-12T17:47:55.765Z,98395.77
2019-03-12T17:50:25.878Z,98403.19
2019-03-12T17:52:56.315Z,98394.88
2019-03-12T17:55:27.165Z,98394.63
2019-03-12T17:57:59.627Z,98385.72
2019-03-12T18:00:30.981Z,98376.20
2019-03-12T18:03:01.479Z,98374.08
2019-03-12T18:05:31.326Z,98359.79
2019-03-12T18:08:04.822Z,98340.28
2019-03-12T18:10:34.600Z,98340.28
2019-03-12T18:13:03.929Z,98341.98
2019-03-12T18:15:33.866Z,98334.80
2019-03-12T18:18:04.133Z,98332.37
2019-03-12T18:20:34.542Z,98325.41
2019-03-12T18:23:04.611Z,98313.23
2019-03-12T18:25:33.880Z,98313.23
2019-03-12T18:28:04.035Z,98315.38
2019-03-12T18:30:34.362Z,98312.12
2019-03-12T18:33:04.983Z,98304.73
2019-03-12T18:35:35.632Z,98294.84
2019-03-12T18:38:05.076Z,98302.22
2019-03-12T18:40:35.165Z,98299.53
2019-03-12T18:43:05.161Z,98297.09
2019-03-12T18:45:35.535Z,98294.20
2019-03-12T18:48:05.044Z,98303.84
2019-03-12T18:50:35.189Z,98302.33
2019-03-12T18:53:05.372Z,98302.77
2019-03-12T18:56:09.548Z,98291.08
2019-03-12T18:58:39.755Z,98282.86
2019-03-12T19:01:15.381Z,98280.42
2019-03-12T19:03:45.971Z,98276.38
2019-03-12T19:06:15.880Z,98269.27
2019-03-12T19:08:48.169Z,98261.95
2019-03-12T19:11:19.072Z,98255.55
2019-03-12T19:13:49.622Z,98257.76
2019-03-12T19:16:18.889Z,98261.44
2019-03-12T19:18:48.758Z,98258.44
2019-03-12T19:21:18.931Z,98244.21
2019-03-12T19:23:54.365Z,98235.61
2019-03-12T19:26:24.862Z,98209.21
2019-03-12T19:28:54.684Z,98209.21
2019-03-12T19:31:41.962Z,98206.52
2019-03-12T19:34:16.527Z,98197.34
2019-03-12T19:36:46.557Z,98173.02
2019-03-12T19:39:18.575Z,98173.02
2019-03-12T19:41:47.776Z,98185.70
2019-03-12T19:44:18.496Z,98193.53
2019-03-12T19:46:49.233Z,98180.70
2019-03-12T19:49:19.400Z,98180.70
2019-03-12T19:51:51.543Z,98180.24
2019-03-12T19:54:21.289Z,98179.27
2019-03-12T19:56:51.713Z,98184.39
2019-03-12T19:59:22.169Z,98179.37
2019-03-12T20:01:59.401Z,98176.04
2019-03-12T20:04:29.655Z,98165.81
2019-03-12T20:07:00.018Z,98165.81
2019-03-12T20:10:54.803Z,98160.24
2019-03-12T20:14:37.940Z,98155.42
2019-03-12T20:19:01.325Z,98139.03
2019-03-12T20:22:41.626Z,98127.58
2019-03-12T20:26:34.602Z,98129.05
2019-03-12T20:30:03.519Z,98124.80
2019-03-12T20:34:28.589Z,98082.91
2019-03-12T20:38:03.072Z,98082.91
2019-03-12T20:42:01.339Z,98084.14
2019-03-12T20:45:53.506Z,98078.66
2019-03-12T20:49:34.333Z,98047.94
2019-03-12T20:53:22.487Z,98047.94
2019-03-12T20:57:35.879Z,98049.01
2019-03-12T21:01:39.091Z,98049.01
2019-03-12T21:05:40.373Z,98020.17
2019-03-12T21:09:40.747Z,98001.48
2019-03-12T21:13:40.555Z,98001.48
2019-03-12T21:17:28.514Z,97988.65
2019-03-12T21:21:28.068Z,97982.05
2019-03-12T21:24:53.549Z,97982.05
2019-03-12T21:28:29.890Z,97969.83
2019-03-12T21:30:59.561Z,97969.84
2019-03-12T21:33:30.337Z,97954.76
2019-03-12T21:36:02.566Z,97954.76
2019-03-12T21:38:34.097Z,97936.50
2019-03-12T21:41:05.049Z,97925.52
2019-03-12T21:43:35.517Z,97927.99
2019-03-12T21:46:07.963Z,97894.22
2019-03-12T21:48:39.616Z,97894.22
2019-03-12T21:51:10.781Z,97904.57
2019-03-12T21:53:41.804Z,97902.82
2019-03-12T21:56:12.840Z,97897.56
2019-03-12T21:58:43.601Z,97890.42
2019-03-12T22:01:17.691Z,97887.30
2019-03-12T22:03:48.084Z,97887.00
2019-03-12T22:06:20.582Z,97887.68
2019-03-12T22:08:49.873Z,97881.19
2019-03-12T22:11:20.088Z,97871.48
2019-03-12T22:13:50.325Z,97866.63
2019-03-12T22:16:20.476Z,97863.23
2019-03-12T22:18:50.530Z,97859.06
2019-03-12T22:21:25.678Z,97859.06
2019-03-12T22:23:58.034Z,97853.00
2019-03-12T22:26:28.620Z,97859.90
2019-03-12T22:28:57.719Z,97855.09
2019-03-12T22:31:28.321Z,97855.53
2019-03-12T22:33:58.739Z,97853.46
2019-03-12T22:36:28.668Z,97853.46
2019-03-12T22:38:59.346Z,97846.12
2019-03-12T22:41:29.550Z,97844.32
2019-03-12T22:43:58.673Z,97837.97
2019-03-12T22:46:28.476Z,97837.94
2019-03-12T22:48:58.594Z,97822.78
2019-03-12T22:51:27.874Z,97822.78
2019-03-12T22:53:57.684Z,97817.66
2019-03-12T22:56:27.809Z,97821.89
2019-03-12T22:58:58.171Z,97809.06
2019-03-12T23:01:47.324Z,97815.73
2019-03-12T23:04:36.121Z,97813.72
2019-03-12T23:07:24.825Z,97813.48
2019-03-12T23:09:55.649Z,97802.11
2019-03-12T23:12:27.803Z,97819.22
2019-03-12T23:14:58.863Z,97819.22
2019-03-12T23:17:30.481Z,97818.94
2019-03-12T23:20:00.666Z,97821.41
2019-03-12T23:22:31.149Z,97821.41
2019-03-12T23:25:02.144Z,97845.28
2019-03-12T23:27:34.325Z,97850.50
2019-03-12T23:30:06.640Z,97858.03
2019-03-12T23:32:38.497Z,97875.77
2019-03-12T23:35:08.879Z,97866.72
2019-03-12T23:37:38.891Z,97866.72
2019-03-12T23:40:09.678Z,97898.94
2019-03-12T23:42:39.582Z,97900.05
2019-03-12T23:45:08.852Z,97908.48
2019-03-12T23:47:38.814Z,97918.59
2019-03-12T23:50:09.622Z,97916.99
2019-03-12T23:52:39.522Z,97915.63
2019-03-12T23:55:09.684Z,97934.27
2019-03-12T23:57:39.353Z,97934.27
